Time;durP1;ratioP1;P1;durP2;ratioP2;P2;SDS_P1;SDS_P2;PMS_P1;PMS_P2;Temp;Humidity;BMP_temperature;BMP_pressure;BME280_temperature;BME280_humidity;BME280_pressure;Samples;Min_cycle;Max_cycle;Signal;HPM_P1;HPM_P2
2022/11/09 00:02:22;;;;;;;1999.90;999.90;;;15.40;1.00;;;;;;5120232;27;20560;-90
2022/11/09 00:04:48;;;;;;;1999.90;999.90;;;15.40;99.90;;;;;;5156378;27;20043;-91
2022/11/09 00:07:14;;;;;;;1999.90;999.90;;;15.40;1.00;;;;;;5156822;27;20035;-90
2022/11/09 00:09:39;;;;;;;1999.90;999.90;;;15.40;99.90;;;;;;5154817;27;20049;-90
2022/11/09 00:12:06;;;;;;;1999.90;999.90;;;15.40;99.90;;;;;;5156250;27;20034;-90
2022/11/09 00:14:33;;;;;;;1999.90;999.90;;;15.40;99.90;;;;;;5154809;27;20216;-87
2022/11/09 00:16:59;;;;;;;1999.90;999.90;;;15.40;1.00;;;;;;5155888;27;20084;-87
2022/11/09 00:19:25;;;;;;;1999.90;999.90;;;15.40;1.00;;;;;;5155987;27;20089;-90
2022/11/09 00:21:51;;;;;;;1999.90;999.90;;;15.40;1.00;;;;;;5155091;27;20415;-89
2022/11/09 00:24:17;;;;;;;1999.90;999.90;;;15.40;1.00;;;;;;5155759;27;20151;-91
2022/11/09 00:26:42;;;;;;;1999.90;999.90;;;15.30;1.00;;;;;;5121087;27;20402;-91
2022/11/09 00:29:08;;;;;;;1999.90;999.90;;;15.30;1.00;;;;;;5137211;27;20054;-91
2022/11/09 00:31:34;;;;;;;1999.90;999.90;;;15.20;1.00;;;;;;5155405;27;20038;-92
2022/11/09 00:34:00;;;;;;;1999.90;999.90;;;15.20;1.00;;;;;;5154902;27;20125;-91
2022/11/09 00:36:27;;;;;;;1999.90;999.90;;;15.20;1.00;;;;;;5137147;27;20101;-90
2022/11/09 00:38:58;;;;;;;1999.90;999.90;;;15.20;1.00;;;;;;5137174;27;20055;-90
2022/11/09 00:41:24;;;;;;;1999.90;999.90;;;15.00;1.00;;;;;;5155069;27;20053;-91
2022/11/09 00:43:51;;;;;;;1999.90;999.90;;;15.00;1.00;;;;;;5136929;27;20142;-90
2022/11/09 00:46:17;;;;;;;1999.90;999.90;;;15.00;1.00;;;;;;5153246;27;20449;-84
2022/11/09 00:48:43;;;;;;;1999.90;999.90;;;15.10;4.00;;;;;;5153121;27;20054;-90
2022/11/09 00:51:09;;;;;;;1999.90;999.90;;;15.10;72.00;;;;;;5155568;27;20121;-90
2022/11/09 00:53:35;;;;;;;1999.90;999.90;;;15.20;99.90;;;;;;5134778;27;20226;-89
2022/11/09 00:56:10;;;;;;;1999.90;999.90;;;15.20;99.90;;;;;;5154098;27;20133;-91
2022/11/09 00:58:37;;;;;;;1999.90;999.90;;;15.40;99.90;;;;;;5154908;27;20137;-92
2022/11/09 01:01:12;;;;;;;1999.90;999.90;;;15.20;95.30;;;;;;5154611;27;20389;-90
2022/11/09 01:03:38;;;;;;;1999.90;999.90;;;15.20;72.70;;;;;;5155097;27;20629;-89
2022/11/09 01:06:05;;;;;;;1999.90;999.90;;;15.20;63.40;;;;;;5135982;27;20050;-91
2022/11/09 01:08:35;;;;;;;1999.90;999.90;;;15.30;43.10;;;;;;5154567;27;20509;-91
2022/11/09 01:11:06;;;;;;;1999.90;999.90;;;15.30;22.70;;;;;;5154688;27;20038;-88
2022/11/09 01:13:32;;;;;;;1999.90;999.90;;;15.30;4.80;;;;;;5135659;27;20054;-89
2022/11/09 01:15:57;;;;;;;1999.90;999.90;;;15.30;1.00;;;;;;5136282;27;20043;-90
2022/11/09 01:18:23;;;;;;;1999.90;999.90;;;15.30;1.00;;;;;;5154539;27;20386;-89
2022/11/09 01:20:49;;;;;;;1999.90;999.90;;;15.30;1.00;;;;;;5135260;27;20078;-89
2022/11/09 01:23:18;;;;;;;1999.90;999.90;;;15.30;1.00;;;;;;5154227;27;20042;-89
2022/11/09 01:25:44;;;;;;;1999.90;999.90;;;15.30;1.00;;;;;;5134663;27;20050;-88
2022/11/09 01:28:10;;;;;;;1999.90;999.90;;;15.40;1.00;;;;;;5154714;27;20053;-92
2022/11/09 01:30:39;;;;;;;1999.90;999.90;;;15.30;1.00;;;;;;5153853;27;20413;-91
2022/11/09 01:33:07;;;;;;;1999.90;999.90;;;15.30;1.00;;;;;;5153858;27;20083;-87
2022/11/09 01:35:33;;;;;;;1999.90;999.90;;;15.40;99.90;;;;;;5153783;27;20042;-89
2022/11/09 01:38:00;;;;;;;1999.90;999.90;;;15.40;99.90;;;;;;5154536;27;20475;-90
2022/11/09 01:40:27;;;;;;;1999.90;999.90;;;15.40;99.90;;;;;;5153351;27;20483;-89
2022/11/09 01:42:53;;;;;;;1999.90;999.90;;;15.40;99.90;;;;;;5153943;27;20159;-92
2022/11/09 01:45:24;;;;;;;1999.90;999.90;;;15.40;99.90;;;;;;5135459;27;20047;-89
2022/11/09 01:48:05;;;;;;;1999.90;999.90;;;15.40;99.90;;;;;;5135310;27;20053;-85
2022/11/09 01:50:55;;;;;;;1999.90;999.90;;;15.40;99.90;;;;;;5153270;27;20086;-89
2022/11/09 01:53:30;;;;;;;1999.90;999.90;;;15.50;99.90;;;;;;5154237;27;20503;-87
2022/11/09 01:56:01;;;;;;;1999.90;999.90;;;15.50;99.90;;;;;;5135862;27;20497;-87
2022/11/09 01:58:31;;;;;;;1999.90;999.90;;;15.50;99.90;;;;;;5153723;27;20053;-88
2022/11/09 02:00:59;;;;;;;1999.90;999.90;;;15.40;99.90;;;;;;5134630;27;20296;-89
2022/11/09 02:03:33;;;;;;;1999.90;999.90;;;15.40;99.90;;;;;;5154096;27;20089;-88
2022/11/09 02:06:02;;;;;;;1999.90;999.90;;;15.40;99.90;;;;;;5134330;27;20486;-89
2022/11/09 02:08:28;;;;;;;1999.90;999.90;;;15.40;99.90;;;;;;5135880;27;20082;-87
2022/11/09 02:11:10;;;;;;;1999.90;999.90;;;15.40;99.90;;;;;;5134451;27;20470;-90
2022/11/09 02:13:40;;;;;;;1999.90;999.90;;;15.50;70.40;;;;;;5153958;27;20046;-88
2022/11/09 02:16:07;;;;;;;1999.90;999.90;;;15.50;1.00;;;;;;5153595;27;20074;-89
2022/11/09 02:18:33;;;;;;;1999.90;999.90;;;15.50;1.00;;;;;;5135466;27;20086;-89
2022/11/09 02:20:59;;;;;;;1999.90;999.90;;;15.50;1.00;;;;;;5153233;27;20632;-87
2022/11/09 02:23:25;;;;;;;1999.90;999.90;;;15.50;1.00;;;;;;5119189;27;20121;-88
2022/11/09 02:26:04;;;;;;;1999.90;999.90;;;15.40;1.00;;;;;;5153867;27;20053;-88
2022/11/09 02:28:31;;;;;;;1999.90;999.90;;;15.40;1.00;;;;;;5153661;27;20474;-89
2022/11/09 02:30:57;;;;;;;1999.90;999.90;;;15.40;1.00;;;;;;5135271;27;20043;-89
2022/11/09 02:33:24;;;;;;;1999.90;999.90;;;15.40;1.00;;;;;;5133895;27;20074;-89
2022/11/09 02:35:49;;;;;;;1999.90;999.90;;;15.40;1.00;;;;;;5117463;27;20073;-90
2022/11/09 02:38:15;;;;;;;1999.90;999.90;;;15.50;1.00;;;;;;5156869;27;20050;-91
2022/11/09 02:40:45;;;;;;;1999.90;999.90;;;15.50;99.90;;;;;;5156474;27;20130;-89
2022/11/09 02:43:13;;;;;;;1999.90;999.90;;;15.50;99.90;;;;;;5156815;27;20046;-84
2022/11/09 02:45:38;;;;;;;1999.90;999.90;;;15.70;99.90;;;;;;5152147;27;20038;-88
2022/11/09 02:48:05;;;;;;;1999.90;999.90;;;15.50;99.90;;;;;;5134134;27;20172;-85
2022/11/09 02:50:30;;;;;;;1999.90;999.90;;;15.40;99.90;;;;;;5151538;27;20043;-89
2022/11/09 02:52:56;;;;;;;1999.90;999.90;;;15.50;99.90;;;;;;5134611;27;20084;-88
2022/11/09 02:55:21;;;;;;;1999.90;999.90;;;15.50;99.90;;;;;;5153257;27;20053;-89
2022/11/09 02:57:47;;;;;;;1999.90;999.90;;;15.50;99.90;;;;;;5134893;27;20043;-87
2022/11/09 03:00:13;;;;;;;1999.90;999.90;;;15.50;58.20;;;;;;5152905;27;20487;-86
2022/11/09 03:02:39;;;;;;;1999.90;999.90;;;15.50;13.10;;;;;;5133955;27;20352;-87
2022/11/09 03:05:06;;;;;;;1999.90;999.90;;;15.50;1.00;;;;;;5134721;27;20050;-88
2022/11/09 03:07:31;;;;;;;1999.90;999.90;;;15.50;1.00;;;;;;5152478;27;20075;-85
2022/11/09 03:09:57;;;;;;;1999.90;999.90;;;15.50;1.00;;;;;;5134095;27;20039;-88
2022/11/09 03:12:29;;;;;;;1999.90;999.90;;;15.50;1.00;;;;;;5152952;27;20039;-88
2022/11/09 03:15:05;;;;;;;1999.90;999.90;;;15.40;1.00;;;;;;5134141;27;20035;-87
2022/11/09 03:17:31;;;;;;;1999.90;999.90;;;15.50;99.90;;;;;;5133702;27;20046;-86
2022/11/09 03:19:57;;;;;;;1999.90;999.90;;;15.50;99.90;;;;;;5136953;27;20046;-86
2022/11/09 03:22:23;;;;;;;1999.90;999.90;;;15.50;99.90;;;;;;5157346;27;20075;-88
2022/11/09 03:24:49;;;;;;;1999.90;999.90;;;15.50;99.90;;;;;;5121508;27;20055;-88
2022/11/09 03:27:15;;;;;;;1999.90;999.90;;;15.50;99.90;;;;;;5156900;27;20053;-88
2022/11/09 03:29:40;;;;;;;1999.90;999.90;;;15.50;99.90;;;;;;5156308;27;20042;-86
2022/11/09 03:32:06;;;;;;;1999.90;999.90;;;15.60;48.90;;;;;;5156963;27;20039;-87
2022/11/09 03:34:32;;;;;;;1999.90;999.90;;;15.60;1.00;;;;;;5156226;27;20054;-85
2022/11/09 03:36:58;;;;;;;1999.90;999.90;;;15.50;1.00;;;;;;5156574;27;20135;-87
2022/11/09 03:39:23;;;;;;;1999.90;999.90;;;15.50;1.00;;;;;;5137845;27;20328;-85
2022/11/09 03:41:49;;;;;;;1999.90;999.90;;;15.50;1.00;;;;;;5155787;27;20049;-87
2022/11/09 03:44:15;;;;;;;1999.90;999.90;;;15.50;1.00;;;;;;5137864;27;20038;-86
2022/11/09 03:46:40;;;;;;;1999.90;999.90;;;15.50;1.00;;;;;;5155179;27;20046;-86
2022/11/09 03:49:06;;;;;;;1999.90;999.90;;;15.40;1.00;;;;;;5136731;27;20458;-86
2022/11/09 03:51:32;;;;;;;1999.90;999.90;;;15.40;1.00;;;;;;5156305;27;20390;-85
2022/11/09 03:53:58;;;;;;;1999.90;999.90;;;15.30;1.00;;;;;;5138662;27;20055;-86
2022/11/09 03:56:24;;;;;;;1999.90;999.90;;;15.30;1.00;;;;;;5156495;27;20039;-86
2022/11/09 03:58:49;;;;;;;1999.90;999.90;;;15.30;1.00;;;;;;5137765;27;20042;-86
2022/11/09 04:01:15;;;;;;;1999.90;999.90;;;15.30;1.30;;;;;;5155698;27;20038;-87
2022/11/09 04:03:41;;;;;;;1999.90;999.90;;;15.30;3.60;;;;;;5155315;27;20092;-87
2022/11/09 04:06:06;;;;;;;1999.90;999.90;;;15.30;23.10;;;;;;5155690;27;20050;-86
2022/11/09 04:08:32;;;;;;;1999.90;999.90;;;15.30;4.00;;;;;;5137969;27;20181;-86
2022/11/09 04:10:59;;;;;;;1999.90;999.90;;;15.30;25.30;;;;;;5137869;27;20054;-87
2022/11/09 04:13:24;;;;;;;1999.90;999.90;;;15.20;32.30;;;;;;5156023;27;20512;-85
2022/11/09 04:15:50;;;;;;;1999.90;999.90;;;15.20;49.00;;;;;;5137342;27;20050;-86
2022/11/09 04:18:16;;;;;;;1999.90;999.90;;;15.20;82.50;;;;;;5137524;27;20049;-86
2022/11/09 04:20:42;;;;;;;1999.90;999.90;;;15.20;99.90;;;;;;5154514;27;20075;-86
2022/11/09 04:23:11;;;;;;;1999.90;999.90;;;15.20;99.90;;;;;;5155552;27;20047;-88
2022/11/09 04:25:38;;;;;;;1999.90;999.90;;;15.10;99.90;;;;;;5154991;27;20049;-84
2022/11/09 04:28:06;;;;;;;1999.90;999.90;;;15.10;99.90;;;;;;5138355;27;20299;-86
2022/11/09 04:30:34;;;;;;;1999.90;999.90;;;14.60;99.90;;;;;;5136446;27;20092;-86
2022/11/09 04:33:00;;;;;;;;;;;15.20;99.90;;;;;;5120003;27;20050;-84
2022/11/09 04:35:28;;;;;;;1999.90;999.90;;;15.20;99.90;;;;;;5136548;27;19926;-87
2022/11/09 04:37:59;;;;;;;1999.90;999.90;;;15.20;99.90;;;;;;5155396;27;20066;-87
2022/11/09 04:40:26;;;;;;;1999.90;999.90;;;15.20;99.90;;;;;;5154373;27;20043;-84
2022/11/09 04:42:52;;;;;;;1999.90;999.90;;;15.20;99.90;;;;;;5118160;27;20051;-88
2022/11/09 04:45:19;;;;;;;1999.90;999.90;;;15.20;99.90;;;;;;5153633;27;20525;-85
2022/11/09 04:47:44;;;;;;;1999.90;999.90;;;15.20;99.90;;;;;;5135972;27;20426;-87
2022/11/09 04:50:10;;;;;;;1999.90;999.90;;;15.20;99.90;;;;;;5152963;27;20035;-87
2022/11/09 04:52:36;;;;;;;1999.90;999.90;;;15.20;99.90;;;;;;5154030;27;20046;-88
2022/11/09 04:55:02;;;;;;;1999.90;999.90;;;15.30;99.90;;;;;;5135000;27;20098;-86
2022/11/09 04:57:27;;;;;;;1999.90;999.90;;;15.40;99.90;;;;;;5136812;27;20078;-88
2022/11/09 04:59:53;;;;;;;1999.90;999.90;;;15.40;99.90;;;;;;5153251;27;20089;-88
2022/11/09 05:02:19;;;;;;;1999.90;999.90;;;15.40;99.90;;;;;;5153697;27;20038;-88
2022/11/09 05:04:44;;;;;;;1999.90;999.90;;;15.50;99.90;;;;;;5153245;27;20057;-88
2022/11/09 05:07:10;;;;;;;1999.90;999.90;;;15.50;99.90;;;;;;5134117;27;20043;-89
2022/11/09 05:09:36;;;;;;;1999.90;999.90;;;15.60;64.10;;;;;;5152638;27;20038;-88
2022/11/09 05:12:01;;;;;;;1999.90;999.90;;;15.70;54.60;;;;;;5118546;27;20129;-88
2022/11/09 05:14:27;;;;;;;1999.90;999.90;;;15.60;29.20;;;;;;5136024;27;20080;-88
2022/11/09 05:16:52;;;;;;;1999.90;999.90;;;15.70;2.60;;;;;;5153134;27;20042;-87
2022/11/09 05:19:18;;;;;;;1999.90;999.90;;;15.70;1.00;;;;;;5154269;27;20042;-87
2022/11/09 05:21:44;;;;;;;1999.90;999.90;;;15.80;1.00;;;;;;5153319;27;20061;-88
2022/11/09 05:24:10;;;;;;;1999.90;999.90;;;15.80;1.00;;;;;;5153639;27;20082;-86
2022/11/09 05:26:40;;;;;;;1999.90;999.90;;;15.90;1.00;;;;;;5154205;27;20125;-86
2022/11/09 05:29:08;;;;;;;1999.90;999.90;;;15.80;1.00;;;;;;5153520;27;20062;-87
2022/11/09 05:31:35;;;;;;;1999.90;999.90;;;15.80;1.00;;;;;;5154013;27;20455;-83
2022/11/09 05:34:01;;;;;;;1999.90;999.90;;;15.80;1.00;;;;;;5153574;27;20486;-83
2022/11/09 05:36:29;;;;;;;1999.90;999.90;;;15.80;99.90;;;;;;5153829;27;20050;-85
2022/11/09 05:38:55;;;;;;;1999.90;999.90;;;15.90;99.90;;;;;;5113097;27;1143972;-84
2022/11/09 05:41:21;;;;;;;1999.90;999.90;;;15.80;99.90;;;;;;5153906;27;20082;-84
2022/11/09 05:43:47;;;;;;;1999.90;999.90;;;15.80;99.90;;;;;;5136584;27;20119;-85
2022/11/09 05:46:14;;;;;;;1999.90;999.90;;;15.80;99.90;;;;;;5135779;27;20046;-83
2022/11/09 05:48:41;;;;;;;1999.90;999.90;;;15.70;99.90;;;;;;5154728;27;20039;-84
2022/11/09 05:51:08;;;;;;;1999.90;999.90;;;15.70;99.90;;;;;;5132772;27;20558;-84
2022/11/09 05:53:34;;;;;;;1999.90;999.90;;;15.60;99.90;;;;;;5154723;27;20068;-84
2022/11/09 05:56:06;;;;;;;1999.90;999.90;;;15.60;99.90;;;;;;5152621;27;20039;-85
2022/11/09 05:58:35;;;;;;;1999.90;999.90;;;15.50;1.00;;;;;;5134804;27;20133;-83
2022/11/09 06:01:03;;;;;;;1999.90;999.90;;;15.50;1.00;;;;;;5153362;27;20048;-83
2022/11/09 06:03:29;;;;;;;1999.90;999.90;;;15.40;1.00;;;;;;5135881;27;20042;-84
2022/11/09 06:06:00;;;;;;;1999.90;999.90;;;15.40;1.00;;;;;;5134668;27;20049;-84
2022/11/09 06:08:25;;;;;;;1999.90;999.90;;;15.40;1.00;;;;;;5154303;27;20049;-84
2022/11/09 06:11:00;;;;;;;1999.90;999.90;;;15.40;1.00;;;;;;5153909;27;20043;-84
2022/11/09 06:13:27;;;;;;;1999.90;999.90;;;15.40;1.00;;;;;;5153435;27;20043;-85
2022/11/09 06:15:54;;;;;;;1999.90;999.90;;;15.40;1.00;;;;;;5153233;27;20502;-84
2022/11/09 06:18:20;;;;;;;1999.90;999.90;;;15.40;1.00;;;;;;5154290;27;20039;-84
2022/11/09 06:20:46;;;;;;;1999.90;999.90;;;15.40;1.00;;;;;;5153386;27;20490;-85
2022/11/09 06:23:11;;;;;;;1999.90;999.90;;;15.40;1.00;;;;;;5153139;27;20163;-85
2022/11/09 06:25:37;;;;;;;1999.90;999.90;;;15.40;1.00;;;;;;5135283;27;20478;-84
2022/11/09 06:28:03;;;;;;;1999.90;999.90;;;15.50;1.00;;;;;;5135472;27;20395;-85
2022/11/09 06:30:29;;;;;;;1999.90;999.90;;;15.30;1.00;;;;;;5152825;27;20453;-85
2022/11/09 06:32:59;;;;;;;1999.90;999.90;;;15.30;1.00;;;;;;5153847;27;20121;-84
2022/11/09 06:35:24;;;;;;;1999.90;999.90;;;15.20;1.00;;;;;;5134471;27;20082;-84
2022/11/09 06:38:00;;;;;;;1999.90;999.90;;;15.20;1.00;;;;;;5116402;27;20082;-85
2022/11/09 06:40:26;;;;;;;1999.90;999.90;;;15.20;1.00;;;;;;5152292;27;20042;-84
2022/11/09 06:42:54;;;;;;;1999.90;999.90;;;15.20;1.00;;;;;;5152058;27;20128;-85
2022/11/09 06:45:20;;;;;;;1999.90;999.90;;;15.20;1.00;;;;;;5134748;27;20558;-85
2022/11/09 06:47:45;;;;;;;1999.90;999.90;;;15.20;1.00;;;;;;5135548;27;20077;-85
2022/11/09 06:50:11;;;;;;;1999.90;999.90;;;15.20;1.00;;;;;;5133467;27;20072;-84
2022/11/09 06:52:37;;;;;;;1999.90;999.90;;;15.30;1.00;;;;;;5153015;27;20043;-85
2022/11/09 06:55:03;;;;;;;1999.90;999.90;;;15.30;1.00;;;;;;5134822;27;20042;-84
2022/11/09 06:57:29;;;;;;;1999.90;999.90;;;15.30;1.00;;;;;;5116937;27;20039;-86
2022/11/09 06:59:55;;;;;;;1999.90;999.90;;;15.30;1.00;;;;;;5151946;27;20049;-85
2022/11/09 07:02:21;;;;;;;1999.90;999.90;;;15.30;1.00;;;;;;5152984;27;20118;-83
2022/11/09 07:04:50;;;;;;;1999.90;999.90;;;15.30;99.90;;;;;;5154143;27;20091;-86
2022/11/09 07:07:16;;;;;;;1999.90;999.90;;;15.40;99.90;;;;;;5134874;27;20061;-85
2022/11/09 07:09:41;;;;;;;1999.90;999.90;;;15.30;99.90;;;;;;5153994;27;20555;-86
2022/11/09 07:12:08;;;;;;;1999.90;999.90;;;15.20;1.00;;;;;;5152507;27;20043;-85
2022/11/09 07:14:35;;;;;;;1999.90;999.90;;;15.20;1.00;;;;;;5153239;27;20047;-85
2022/11/09 07:17:01;;;;;;;1999.90;999.90;;;15.10;1.00;;;;;;5134675;27;20046;-84
2022/11/09 07:19:30;;;;;;;1999.90;999.90;;;15.10;1.00;;;;;;5153764;27;20046;-84
2022/11/09 07:21:56;;;;;;;1999.90;999.90;;;15.10;1.00;;;;;;5152833;27;20038;-85
2022/11/09 07:24:22;;;;;;;1999.90;999.90;;;15.10;1.00;;;;;;5153174;27;20047;-84
2022/11/09 07:26:48;;;;;;;1999.90;999.90;;;15.10;1.00;;;;;;5153125;27;20470;-86
2022/11/09 07:29:14;;;;;;;1999.90;999.90;;;15.10;1.00;;;;;;5135224;27;20091;-84
2022/11/09 07:31:40;;;;;;;1999.90;999.90;;;15.10;1.00;;;;;;5153481;27;20043;-84
2022/11/09 07:34:05;;;;;;;1999.90;999.90;;;15.10;1.00;;;;;;5135068;27;20041;-84
2022/11/09 07:36:32;;;;;;;1999.90;999.90;;;15.20;1.00;;;;;;5153179;27;20043;-85
2022/11/09 07:38:57;;;;;;;1999.90;999.90;;;15.20;1.00;;;;;;5153530;27;20054;-85
2022/11/09 07:41:23;;;;;;;1999.90;999.90;;;15.20;1.00;;;;;;5135520;27;20125;-83
2022/11/09 07:43:49;;;;;;;1999.90;999.90;;;15.20;1.00;;;;;;5153593;27;20100;-84
2022/11/09 07:46:15;;;;;;;1999.90;999.90;;;15.20;99.90;;;;;;5134805;27;20070;-83
2022/11/09 07:48:41;;;;;;;1999.90;999.90;;;15.30;99.90;;;;;;5153724;27;20050;-85
2022/11/09 07:51:07;;;;;;;1999.90;999.90;;;15.30;99.90;;;;;;5152108;27;20035;-84
2022/11/09 07:53:32;;;;;;;1999.90;999.90;;;15.30;99.90;;;;;;5153660;27;20467;-84
2022/11/09 07:56:00;;;;;;;1999.90;999.90;;;15.30;99.90;;;;;;5153459;27;20042;-84
2022/11/09 07:58:26;;;;;;;1999.90;999.90;;;15.40;99.90;;;;;;5134985;27;20065;-84
2022/11/09 08:00:52;;;;;;;1999.90;999.90;;;15.30;99.90;;;;;;5152934;27;20055;-85
2022/11/09 08:03:18;;;;;;;1999.90;999.90;;;15.30;99.90;;;;;;5134524;27;20050;-85
2022/11/09 08:05:44;;;;;;;1999.90;999.90;;;15.30;99.90;;;;;;5155019;27;20084;-85
2022/11/09 08:08:11;;;;;;;1999.90;999.90;;;15.30;99.90;;;;;;5138773;27;20129;-86
2022/11/09 08:10:38;;;;;;;1999.90;999.90;;;15.40;99.90;;;;;;5157330;27;20049;-85
2022/11/09 08:13:12;;;;;;;1999.90;999.90;;;15.40;99.90;;;;;;5138840;27;20048;-86
2022/11/09 08:15:39;;;;;;;1999.90;999.90;;;15.50;99.90;;;;;;5157454;27;20078;-86
2022/11/09 08:18:13;;;;;;;1999.90;999.90;;;15.50;99.90;;;;;;5138764;27;20054;-86
2022/11/09 08:20:39;;;;;;;1999.90;999.90;;;15.50;99.90;;;;;;5138422;27;20117;-86
2022/11/09 08:23:05;;;;;;;1999.90;999.90;;;15.60;99.90;;;;;;5156389;27;20130;-85
2022/11/09 08:25:33;;;;;;;1999.90;999.90;;;15.60;99.90;;;;;;5156611;27;20095;-85
2022/11/09 08:27:59;;;;;;;;;;;15.60;99.90;;;;;;5157595;27;20038;-86
2022/11/09 08:30:25;;;;;;;1999.90;999.90;;;15.70;99.90;;;;;;5156402;27;19919;-84
2022/11/09 08:32:50;;;;;;;1999.90;999.90;;;15.70;99.90;;;;;;5156290;27;20043;-86
2022/11/09 08:35:19;;;;;;;1999.90;999.90;;;15.70;99.90;;;;;;5156654;27;20038;-85
2022/11/09 08:37:46;;;;;;;1999.90;999.90;;;15.70;99.90;;;;;;5156119;27;20054;-86
2022/11/09 08:40:14;;;;;;;1999.90;999.90;;;15.80;99.90;;;;;;5137666;27;20084;-85
2022/11/09 08:42:39;;;;;;;1999.90;999.90;;;15.80;99.90;;;;;;5120969;27;20368;-85
2022/11/09 08:45:05;;;;;;;1999.90;999.90;;;15.80;99.90;;;;;;5138321;27;20058;-85
2022/11/09 08:47:31;;;;;;;1999.90;999.90;;;15.80;99.90;;;;;;5138532;27;20050;-85
2022/11/09 08:49:57;;;;;;;1999.90;999.90;;;15.80;95.50;;;;;;5154525;27;20134;-84
2022/11/09 08:52:23;;;;;;;1999.90;999.90;;;15.90;86.10;;;;;;5156409;27;20079;-84
2022/11/09 08:54:48;;;;;;;1999.90;999.90;;;15.90;51.20;;;;;;5139105;27;20086;-86
2022/11/09 08:57:17;;;;;;;1999.90;999.90;;;16.00;22.60;;;;;;5156253;27;20049;-87
2022/11/09 08:59:43;;;;;;;1999.90;999.90;;;16.00;1.00;;;;;;5156717;27;20058;-87
2022/11/09 09:02:10;;;;;;;1999.90;999.90;;;16.10;1.00;;;;;;5156018;27;20054;-84
2022/11/09 09:04:36;;;;;;;1999.90;999.90;;;16.10;1.00;;;;;;5155985;27;20061;-86
2022/11/09 09:07:01;;;;;;;1999.90;999.90;;;16.20;1.00;;;;;;5156053;27;20047;-86
2022/11/09 09:09:27;;;;;;;1999.90;999.90;;;16.20;1.00;;;;;;5155843;27;20265;-85
2022/11/09 09:11:53;;;;;;;1999.90;999.90;;;16.30;1.00;;;;;;5156149;27;20049;-85
2022/11/09 09:14:19;;;;;;;1999.90;999.90;;;16.40;1.00;;;;;;5120203;27;20054;-86
2022/11/09 09:16:44;;;;;;;1999.90;999.90;;;16.50;1.00;;;;;;5136267;27;20042;-85
2022/11/09 09:19:10;;;;;;;1999.90;999.90;;;16.60;99.90;;;;;;5120407;27;20042;-86
2022/11/09 09:21:36;;;;;;;1999.90;999.90;;;16.70;99.90;;;;;;5136959;27;20383;-86
2022/11/09 09:24:02;;;;;;;1999.90;999.90;;;16.70;99.90;;;;;;5155334;27;20127;-84
2022/11/09 09:26:27;;;;;;;1999.90;999.90;;;16.80;99.90;;;;;;5155726;27;20085;-85
2022/11/09 09:28:53;;;;;;;1999.90;999.90;;;16.80;99.90;;;;;;5120207;27;20448;-86
2022/11/09 09:31:19;;;;;;;1999.90;999.90;;;16.80;99.90;;;;;;5155645;27;20050;-85
2022/11/09 09:33:46;;;;;;;1999.90;999.90;;;16.70;99.90;;;;;;5155484;27;20076;-82
2022/11/09 09:36:17;;;;;;;1999.90;999.90;;;16.80;99.90;;;;;;5154872;27;20050;-88
2022/11/09 09:38:42;;;;;;;1999.90;999.90;;;17.00;99.90;;;;;;5154600;27;20042;-86
2022/11/09 09:41:34;;;;;;;1999.90;999.90;;;17.10;99.90;;;;;;5155357;27;20053;-89
2022/11/09 09:44:22;;;;;;;1999.90;999.90;;;17.10;99.90;;;;;;5154683;27;20053;-88
2022/11/09 09:47:00;;;;;;;1999.90;999.90;;;16.90;99.90;;;;;;5155381;27;20051;-85
2022/11/09 09:49:29;;;;;;;1999.90;999.90;;;16.80;99.90;;;;;;5135152;27;20043;-84
2022/11/09 09:52:10;;;;;;;1999.90;999.90;;;16.70;99.90;;;;;;5154443;27;20043;-88
2022/11/09 09:54:40;;;;;;;1999.90;999.90;;;16.70;99.90;;;;;;5136033;27;20549;-86
2022/11/09 09:57:16;;;;;;;1999.90;999.90;;;16.70;99.90;;;;;;5137070;27;20513;-86
2022/11/09 09:59:46;;;;;;;1999.90;999.90;;;16.70;99.90;;;;;;5136315;27;20050;-84
2022/11/09 10:02:35;;;;;;;1999.90;999.90;;;16.80;99.90;;;;;;5136277;27;20045;-83
2022/11/09 10:05:11;;;;;;;1999.90;999.90;;;17.00;99.90;;;;;;5153509;27;20091;-83
2022/11/09 10:07:41;;;;;;;1999.90;999.90;;;17.10;99.90;;;;;;5135631;27;20055;-85
2022/11/09 10:10:07;;;;;;;1999.90;999.90;;;17.10;99.90;;;;;;5119419;27;20038;-83
2022/11/09 10:12:53;;;;;;;1999.90;999.90;;;17.00;99.90;;;;;;5154384;27;20508;-85
2022/11/09 10:15:47;;;;;;;1999.90;999.90;;;16.90;99.90;;;;;;5111091;27;20217;-85
2022/11/09 10:18:42;;;;;;;1999.90;999.90;;;16.90;99.90;;;;;;5119616;27;20047;-87
2022/11/09 10:21:41;;;;;;;1999.90;999.90;;;16.90;99.90;;;;;;5121801;27;20062;-84
2022/11/09 10:24:39;;;;;;;1999.90;999.90;;;16.90;99.90;;;;;;5119358;27;20103;-86
2022/11/09 10:27:26;;;;;;;1999.90;999.90;;;16.90;99.90;;;;;;5135769;27;20125;-84
2022/11/09 10:29:53;;;;;;;1999.90;999.90;;;16.90;99.90;;;;;;5153262;27;20057;-84
2022/11/09 10:32:23;;;;;;;1999.90;999.90;;;17.00;99.90;;;;;;5154117;27;20043;-84
2022/11/09 10:34:49;;;;;;;1999.90;999.90;;;17.10;99.90;;;;;;5118883;27;20039;-84
2022/11/09 10:37:30;;;;;;;1999.90;999.90;;;17.00;99.90;;;;;;5154130;27;20042;-83
2022/11/09 10:39:59;;;;;;;1999.90;999.90;;;17.00;99.90;;;;;;5118942;27;20055;-84
2022/11/09 10:42:25;;;;;;;1999.90;999.90;;;17.00;99.90;;;;;;5153800;27;20082;-87
2022/11/09 10:44:50;;;;;;;1999.90;999.90;;;17.00;99.90;;;;;;5135554;27;20077;-83
2022/11/09 10:47:17;;;;;;;1999.90;999.90;;;17.00;99.90;;;;;;5154439;27;20507;-85
2022/11/09 10:49:44;;;;;;;1999.90;999.90;;;17.10;99.90;;;;;;5134080;27;20039;-85
2022/11/09 10:52:38;;;;;;;1999.90;999.90;;;17.10;99.90;;;;;;5118511;27;20043;-84
2022/11/09 10:55:25;;;;;;;1999.90;999.90;;;17.20;99.90;;;;;;5154052;27;20050;-86
2022/11/09 10:58:11;;;;;;;1999.90;999.90;;;17.20;99.90;;;;;;5153183;27;20416;-86
2022/11/09 11:00:55;;;;;;;1999.90;999.90;;;17.20;99.90;;;;;;5134213;27;20122;-85
2022/11/09 11:03:23;;;;;;;1999.90;999.90;;;17.30;99.90;;;;;;5135784;27;20057;-87
2022/11/09 11:05:57;;;;;;;1999.90;999.90;;;17.40;99.90;;;;;;5153763;27;20089;-87
2022/11/09 11:08:26;;;;;;;1999.90;999.90;;;17.40;99.90;;;;;;5153903;27;20107;-83
2022/11/09 11:11:16;;;;;;;1999.90;999.90;;;17.40;77.70;;;;;;5153991;27;20093;-86
2022/11/09 11:13:42;;;;;;;1999.90;999.90;;;17.40;93.90;;;;;;5153943;27;20090;-86
2022/11/09 11:16:30;;;;;;;1999.90;999.90;;;17.30;90.40;;;;;;5135144;27;20046;-89
2022/11/09 11:18:57;;;;;;;1999.90;999.90;;;17.10;96.30;;;;;;5153978;27;20125;-89
2022/11/09 11:21:25;;;;;;;1999.90;999.90;;;17.00;99.90;;;;;;5153298;27;20082;-89
2022/11/09 11:24:16;;;;;;;1999.90;999.90;;;16.90;99.90;;;;;;5135451;27;20119;-86
2022/11/09 11:26:49;;;;;;;1999.90;999.90;;;16.90;99.90;;;;;;5135165;27;20043;-86
2022/11/09 11:29:18;;;;;;;1999.90;999.90;;;16.90;99.90;;;;;;5135895;27;20046;-87
2022/11/09 11:31:43;;;;;;;1999.90;999.90;;;16.90;99.90;;;;;;5135388;27;20046;-84
2022/11/09 11:34:14;;;;;;;1999.90;999.90;;;16.90;99.90;;;;;;5118615;27;20155;-86
2022/11/09 11:36:52;;;;;;;1999.90;999.90;;;16.90;94.90;;;;;;5134519;27;20172;-88
2022/11/09 11:39:44;;;;;;;1999.90;999.90;;;16.90;98.40;;;;;;5135367;27;20051;-88
2022/11/09 11:42:26;;;;;;;1999.90;999.90;;;16.90;78.70;;;;;;5157979;27;20074;-87
2022/11/09 11:44:57;;;;;;;1999.90;999.90;;;16.80;89.00;;;;;;5157692;27;20180;-89
2022/11/09 11:48:11;;;;;;;1999.90;999.90;;;16.80;95.40;;;;;;5157376;27;20046;-86
2022/11/09 11:51:04;;;;;;;1999.90;999.90;;;16.80;99.90;;;;;;5142078;27;20402;-88
2022/11/09 11:53:56;;;;;;;1999.90;999.90;;;16.90;99.90;;;;;;5157302;27;20483;-89
2022/11/09 11:56:42;;;;;;;1999.90;999.90;;;16.90;94.60;;;;;;5142373;27;20054;-89
2022/11/09 11:59:28;;;;;;;1999.90;999.90;;;16.80;98.70;;;;;;5122159;27;20099;-87
2022/11/09 12:02:02;;;;;;;1999.90;999.90;;;16.90;92.00;;;;;;5156607;27;20493;-87
2022/11/09 12:04:30;;;;;;;1999.90;999.90;;;16.90;90.10;;;;;;5156876;27;20042;-88
2022/11/09 12:07:04;;;;;;;1999.90;999.90;;;16.90;82.10;;;;;;5156358;27;20126;-86
2022/11/09 12:09:41;;;;;;;1999.90;999.90;;;16.90;99.90;;;;;;5157198;27;20071;-87
2022/11/09 12:12:38;;;;;;;1999.90;999.90;;;16.90;99.90;;;;;;5157312;27;20096;-87
2022/11/09 12:15:10;;;;;;;1999.90;999.90;;;16.90;99.90;;;;;;5134444;27;20054;-85